Time;durP1;ratioP1;P1;durP2;ratioP2;P2;SDS_P1;SDS_P2;PMS_P1;PMS_P2;Temp;Humidity;BMP_temperature;BMP_pressure;BME280_temperature;BME280_humidity;BME280_pressure;Samples;Min_cycle;Max_cycle;Signal;HPM_P1;HPM_P2
2022/04/18 00:01:42;;;;;;;2.78;1.50;;;8.50;99.90;;;;;;7309650;32;20119;-61
2022/04/18 00:05:44;;;;;;;2.85;1.60;;;8.60;99.90;;;;;;7315845;32;20233;-61
2022/04/18 00:09:46;;;;;;;2.92;1.73;;;8.70;98.40;;;;;;7314209;32;20119;-59
2022/04/18 00:13:47;;;;;;;3.17;1.40;;;8.70;99.30;;;;;;7314117;32;20135;-57
2022/04/18 00:17:49;;;;;;;3.87;1.50;;;8.70;99.90;;;;;;7317172;32;20166;-60
2022/04/18 00:21:51;;;;;;;2.35;1.40;;;8.70;99.90;;;;;;7318347;32;20343;-58
2022/04/18 00:25:53;;;;;;;2.47;1.42;;;8.80;96.30;;;;;;7317767;32;20119;-58
2022/04/18 00:29:54;;;;;;;3.35;1.90;;;8.90;98.70;;;;;;7314685;32;20241;-59
2022/04/18 00:33:56;;;;;;;3.85;1.50;;;9.00;95.10;;;;;;7314341;32;20523;-59
2022/04/18 00:37:57;;;;;;;3.28;1.33;;;9.00;93.20;;;;;;7310063;32;20135;-58
2022/04/18 00:41:59;;;;;;;5.32;1.60;;;9.10;94.40;;;;;;7327084;32;20155;-58
2022/04/18 00:46:01;;;;;;;2.53;1.35;;;9.10;95.80;;;;;;7313468;32;20207;-58
2022/04/18 00:50:03;;;;;;;4.43;1.48;;;9.10;95.10;;;;;;7315811;32;20108;-58
2022/04/18 00:54:05;;;;;;;4.75;1.33;;;9.10;92.90;;;;;;7319980;32;20202;-58
2022/04/18 00:58:07;;;;;;;3.08;1.55;;;9.10;96.20;;;;;;7320493;32;20599;-60
2022/04/18 01:02:13;;;;;;;2.53;1.40;;;9.10;93.80;;;;;;7318453;32;20247;-59
2022/04/18 01:06:15;;;;;;;3.58;1.50;;;9.10;95.10;;;;;;7316914;32;20370;-58
2022/04/18 01:10:17;;;;;;;2.75;1.83;;;9.00;96.50;;;;;;7316891;32;20125;-59
2022/04/18 01:14:18;;;;;;;3.12;1.37;;;9.00;96.90;;;;;;7321587;32;20120;-58
2022/04/18 01:18:21;;;;;;;2.28;1.30;;;8.90;94.30;;;;;;7318507;32;20116;-59
2022/04/18 01:22:22;;;;;;;4.35;1.87;;;9.00;93.10;;;;;;7322120;32;20111;-57
2022/04/18 01:30:45;;;;;;;2.97;1.33;;;8.80;95.30;;;;;;7316205;32;20477;-59
2022/04/18 01:34:46;;;;;;;7.65;1.70;;;8.90;95.30;;;;;;7319841;32;20202;-59
2022/04/18 01:38:48;;;;;;;2.45;1.40;;;8.80;95.30;;;;;;7318124;32;20808;-58
2022/04/18 01:42:50;;;;;;;2.45;1.50;;;8.70;95.90;;;;;;7324558;32;20198;-58
2022/04/18 01:46:51;;;;;;;2.55;1.40;;;8.70;96.70;;;;;;7314214;32;20172;-58
2022/04/18 01:50:53;;;;;;;3.90;1.60;;;8.60;99.30;;;;;;7321193;32;20257;-59
2022/04/18 01:54:55;;;;;;;2.53;1.40;;;8.50;98.80;;;;;;7329264;32;20653;-57
2022/04/18 01:58:57;;;;;;;2.15;1.23;;;8.40;98.00;;;;;;7324832;32;20111;-58
2022/04/18 02:02:59;;;;;;;2.47;1.40;;;8.40;98.40;;;;;;7324432;32;20141;-58
2022/04/18 02:07:00;;;;;;;3.08;1.50;;;8.50;99.90;;;;;;7319696;32;20277;-59
2022/04/18 02:11:04;;;;;;;2.08;1.45;;;8.40;99.20;;;;;;7319265;32;20595;-59
2022/04/18 02:15:06;;;;;;;3.30;1.48;;;8.20;99.90;;;;;;7317248;32;20210;-58
2022/04/18 02:19:08;;;;;;;2.85;1.40;;;8.20;99.90;;;;;;7312906;32;20218;-58
2022/04/18 02:23:10;;;;;;;1.80;1.23;;;8.10;99.90;;;;;;7311247;32;20285;-58
2022/04/18 02:27:11;;;;;;;2.12;1.30;;;7.90;99.90;;;;;;7314031;32;20159;-58
2022/04/18 02:31:13;;;;;;;3.12;1.20;;;7.90;99.90;;;;;;7319109;32;20142;-58
2022/04/18 02:35:16;;;;;;;3.55;1.40;;;8.00;99.90;;;;;;7317742;32;20384;-58
2022/04/18 02:39:18;;;;;;;3.03;1.37;;;8.00;99.90;;;;;;7314668;32;20134;-58
2022/04/18 02:43:20;;;;;;;2.50;1.33;;;8.00;99.90;;;;;;7324270;32;20107;-58
2022/04/18 02:47:22;;;;;;;2.47;1.50;;;8.00;99.90;;;;;;7316569;32;20130;-58
2022/04/18 02:51:27;;;;;;;4.57;1.52;;;8.00;99.90;;;;;;7317695;32;20772;-58
2022/04/18 02:55:29;;;;;;;5.95;1.58;;;7.90;99.90;;;;;;7317374;32;20281;-59
2022/04/18 02:59:30;;;;;;;3.40;1.42;;;8.00;99.90;;;;;;7318633;32;20112;-58
2022/04/18 03:03:32;;;;;;;3.10;1.50;;;8.10;99.90;;;;;;7317384;32;20235;-58
2022/04/18 03:07:34;;;;;;;5.10;1.58;;;8.00;99.90;;;;;;7317256;32;20115;-59
2022/04/18 03:11:35;;;;;;;3.37;1.55;;;8.00;99.90;;;;;;7316579;32;20211;-58
2022/04/18 03:15:37;;;;;;;3.22;1.37;;;8.00;99.90;;;;;;7314025;32;20199;-59
2022/04/18 03:19:39;;;;;;;5.87;1.83;;;8.00;99.90;;;;;;7311930;32;20344;-58
2022/04/18 03:23:42;;;;;;;2.55;1.45;;;7.90;99.90;;;;;;7316038;32;20125;-58
2022/04/18 03:27:44;;;;;;;3.75;1.50;;;7.90;99.90;;;;;;7315709;32;20812;-59
2022/04/18 03:31:46;;;;;;;3.37;1.70;;;7.90;99.90;;;;;;7318279;32;20138;-59
2022/04/18 03:40:08;;;;;;;5.10;1.50;;;7.80;99.90;;;;;;7314834;32;20274;-60
2022/04/18 03:44:10;;;;;;;2.67;1.62;;;7.70;99.90;;;;;;7315007;32;20601;-58
2022/04/18 03:48:11;;;;;;;2.90;1.33;;;7.60;99.90;;;;;;7313620;32;20139;-58
2022/04/18 03:52:13;;;;;;;5.80;1.83;;;7.50;99.90;;;;;;7315290;32;20210;-58
2022/04/18 03:56:15;;;;;;;2.35;1.25;;;7.30;99.90;;;;;;7317068;32;20553;-58
2022/04/18 04:00:17;;;;;;;3.58;1.58;;;7.00;99.90;;;;;;7316012;32;20493;-58
2022/04/18 04:04:18;;;;;;;2.75;1.30;;;6.70;99.90;;;;;;7316946;32;20436;-57
2022/04/18 04:08:22;;;;;;;4.90;1.52;;;6.30;99.90;;;;;;7317520;32;20145;-59
2022/04/18 04:12:25;;;;;;;3.20;1.45;;;6.10;99.90;;;;;;7314415;32;20932;-59
2022/04/18 04:16:27;;;;;;;4.25;1.35;;;5.90;99.90;;;;;;7308381;32;20229;-60
2022/04/18 04:20:29;;;;;;;2.42;1.15;;;5.70;99.90;;;;;;7312424;32;20116;-60
2022/04/18 04:24:30;;;;;;;3.20;1.40;;;5.50;99.90;;;;;;7317885;32;20202;-59
2022/04/18 04:28:32;;;;;;;3.42;1.77;;;5.40;99.90;;;;;;7319521;32;20228;-59
2022/04/18 04:32:34;;;;;;;2.10;1.20;;;5.20;99.90;;;;;;7320311;32;20555;-60
2022/04/18 04:36:36;;;;;;;3.72;1.17;;;5.10;99.90;;;;;;7321879;32;20624;-59
2022/04/18 04:40:38;;;;;;;2.83;1.52;;;5.10;99.90;;;;;;7322533;32;20135;-59
2022/04/18 04:44:39;;;;;;;3.03;1.42;;;5.00;99.90;;;;;;7313692;32;20119;-59
2022/04/18 04:48:41;;;;;;;3.08;1.35;;;4.80;99.90;;;;;;7314965;32;20322;-59
2022/04/18 04:52:43;;;;;;;3.00;1.50;;;4.70;99.90;;;;;;7319215;32;20099;-59
2022/04/18 04:56:49;;;;;;;4.80;1.37;;;4.70;99.90;;;;;;7321848;32;20195;-59
2022/04/18 05:00:51;;;;;;;5.32;1.75;;;4.50;99.90;;;;;;7319108;32;20257;-59
2022/04/18 05:04:53;;;;;;;2.83;1.73;;;4.50;99.90;;;;;;7319171;32;20351;-60
2022/04/18 05:08:55;;;;;;;2.33;1.30;;;4.40;99.90;;;;;;7319120;32;20476;-59
2022/04/18 05:12:57;;;;;;;2.97;1.15;;;4.40;99.90;;;;;;7319454;32;20155;-58
2022/04/18 05:16:59;;;;;;;2.67;1.52;;;4.40;99.90;;;;;;7320531;32;20159;-58
2022/04/18 05:21:00;;;;;;;3.67;1.50;;;4.40;99.90;;;;;;7317244;32;20198;-59
2022/04/18 05:25:03;;;;;;;4.62;1.50;;;4.30;99.90;;;;;;7323133;32;20778;-58
2022/04/18 05:29:05;;;;;;;3.10;1.37;;;4.30;99.90;;;;;;7319053;32;20445;-58
2022/04/18 05:33:07;;;;;;;3.33;1.60;;;4.30;99.90;;;;;;7320002;32;20674;-58
2022/04/18 05:37:09;;;;;;;3.10;1.60;;;4.50;99.90;;;;;;7314124;32;20127;-58
2022/04/18 05:41:11;;;;;;;2.78;1.42;;;4.50;99.90;;;;;;7319002;32;20165;-59
2022/04/18 05:45:12;;;;;;;2.72;1.58;;;4.60;99.90;;;;;;7317866;32;20557;-58
2022/04/18 05:49:14;;;;;;;3.12;1.50;;;4.60;99.90;;;;;;7316211;32;20135;-59
2022/04/18 05:53:16;;;;;;;3.17;1.92;;;4.70;99.90;;;;;;7320848;32;20139;-58
2022/04/18 05:57:21;;;;;;;3.25;1.70;;;4.80;99.90;;;;;;7314849;32;20157;-59
2022/04/18 06:01:23;;;;;;;4.47;1.60;;;4.90;99.90;;;;;;7320815;32;20500;-59
2022/04/18 06:05:25;;;;;;;3.40;1.35;;;5.00;99.90;;;;;;7313917;32;20542;-61
2022/04/18 06:09:26;;;;;;;3.30;1.60;;;5.20;99.90;;;;;;7317198;32;20652;-60
2022/04/18 06:13:28;;;;;;;6.70;1.58;;;5.40;99.90;;;;;;7320375;32;20115;-60
2022/04/18 06:17:30;;;;;;;3.25;1.48;;;5.60;99.90;;;;;;7320174;32;20858;-59
2022/04/18 06:21:31;;;;;;;3.25;1.17;;;5.90;99.90;;;;;;7317864;32;20112;-61
2022/04/18 06:25:33;;;;;;;2.42;1.23;;;6.20;99.90;;;;;;7314857;32;20158;-58
2022/04/18 06:29:35;;;;;;;3.12;1.50;;;6.40;99.90;;;;;;7318945;32;20103;-60
2022/04/18 06:33:37;;;;;;;2.47;1.48;;;6.80;99.90;;;;;;7321586;32;20812;-60
2022/04/18 06:37:38;;;;;;;3.28;1.25;;;7.00;99.90;;;;;;7318539;32;20199;-59
2022/04/18 06:41:40;;;;;;;1.92;1.10;;;7.40;99.90;;;;;;7314606;32;20131;-59
2022/04/18 06:45:42;;;;;;;2.42;1.12;;;7.80;99.90;;;;;;7318082;32;20528;-61
2022/04/18 06:49:43;;;;;;;1.92;1.00;;;8.10;99.90;;;;;;7315724;32;20108;-62
2022/04/18 06:53:45;;;;;;;2.28;1.23;;;8.30;99.90;;;;;;7324016;32;20914;-59
2022/04/18 06:57:47;;;;;;;2.17;1.30;;;8.70;99.90;;;;;;7321803;32;20198;-58
2022/04/18 07:01:48;;;;;;;3.08;1.50;;;9.10;99.90;;;;;;7319467;32;20148;-61
2022/04/18 07:05:50;;;;;;;2.80;1.45;;;9.20;99.90;;;;;;7316950;32;20127;-59
2022/04/18 07:09:52;;;;;;;3.87;1.90;;;9.50;99.90;;;;;;7306261;32;20571;-58
2022/04/18 07:13:53;;;;;;;2.55;1.25;;;9.60;99.90;;;;;;7306257;32;20744;-58
2022/04/18 07:17:55;;;;;;;5.20;1.25;;;9.80;99.90;;;;;;7317205;32;20133;-59
2022/04/18 07:21:57;;;;;;;2.42;1.20;;;10.30;99.90;;;;;;7324403;32;20199;-59
2022/04/18 07:25:59;;;;;;;1.73;1.00;;;11.70;99.70;;;;;;7328177;32;20130;-59
2022/04/18 07:30:00;;;;;;;2.95;1.58;;;11.80;99.90;;;;;;7321873;32;20126;-61
2022/04/18 07:34:02;;;;;;;4.18;1.30;;;12.10;96.40;;;;;;7318237;32;20164;-60
2022/04/18 07:42:24;;;;;;;2.60;1.70;;;12.40;94.10;;;;;;7317071;32;20115;-61
2022/04/18 07:46:25;;;;;;;3.00;1.33;;;13.10;91.50;;;;;;7316349;32;20126;-62
2022/04/18 07:51:31;;;;;;;2.12;1.60;;;13.50;81.30;;;;;;7319532;32;20632;-61
2022/04/18 07:54:49;;;;;;;3.15;1.30;;;13.70;88.50;;;;;;7321744;32;20112;-63
2022/04/18 07:58:51;;;;;;;3.17;1.87;;;13.90;82.70;;;;;;7320490;32;20130;-61
2022/04/18 08:02:53;;;;;;;2.53;1.60;;;13.90;82.90;;;;;;7310754;32;20123;-62
2022/04/18 08:06:55;;;;;;;2.45;1.40;;;14.00;80.50;;;;;;7324124;32;20225;-63
2022/04/18 08:10:57;;;;;;;2.10;1.20;;;14.20;87.00;;;;;;7324257;32;20130;-61
2022/04/18 08:14:59;;;;;;;2.53;1.40;;;14.40;84.70;;;;;;7317245;32;20130;-63
2022/04/18 08:19:00;;;;;;;3.22;1.40;;;14.70;78.10;;;;;;7299018;32;20141;-60
2022/04/18 08:23:02;;;;;;;2.70;1.42;;;15.10;76.30;;;;;;7314845;32;20129;-61
2022/04/18 08:27:04;;;;;;;2.70;1.30;;;15.40;71.70;;;;;;7316664;32;20147;-61
2022/04/18 08:31:07;;;;;;;2.30;1.20;;;15.40;74.00;;;;;;7319849;32;20249;-62
2022/04/18 08:35:10;;;;;;;2.75;1.60;;;15.60;79.20;;;;;;7319361;32;20139;-63
2022/04/18 08:39:12;;;;;;;2.28;1.50;;;15.70;78.60;;;;;;7316185;32;20143;-61
2022/04/18 08:43:13;;;;;;;2.67;1.80;;;15.70;70.40;;;;;;7310995;32;20238;-62
2022/04/18 08:52:43;;;;;;;5.40;1.60;;;15.70;70.80;;;;;;7312267;32;20161;-62
2022/04/18 08:55:59;;;;;;;3.92;1.73;;;16.90;71.60;;;;;;7322523;32;20141;-64
2022/04/18 09:00:02;;;;;;;3.47;1.58;;;17.60;61.30;;;;;;7318163;32;20194;-62
2022/04/18 09:04:03;;;;;;;3.50;1.80;;;17.90;61.30;;;;;;7318317;32;20092;-61
2022/04/18 09:08:07;;;;;;;2.92;1.45;;;18.40;65.40;;;;;;7316867;32;20609;-61
2022/04/18 09:12:19;;;;;;;3.03;1.60;;;19.00;59.40;;;;;;7319701;32;20559;-56
2022/04/18 09:16:29;;;;;;;2.67;1.67;;;19.90;56.10;;;;;;7321820;32;20184;-57
2022/04/18 09:20:41;;;;;;;2.58;1.80;;;19.90;59.10;;;;;;7317485;32;20202;-61
2022/04/18 09:24:46;;;;;;;4.30;1.75;;;20.30;52.60;;;;;;7318908;32;20734;-61
2022/04/18 09:28:48;;;;;;;3.58;1.58;;;20.10;53.70;;;;;;7316496;32;20122;-62
2022/04/18 09:33:06;;;;;;;4.45;1.90;;;20.20;53.00;;;;;;7318320;32;20107;-61
2022/04/18 09:37:15;;;;;;;2.60;1.40;;;20.60;52.90;;;;;;7319239;32;20224;-61
2022/04/18 09:41:25;;;;;;;2.62;1.60;;;21.60;48.30;;;;;;7320298;32;20122;-61
2022/04/18 09:45:27;;;;;;;2.22;1.37;;;22.40;47.10;;;;;;7313917;32;20230;-61
2022/04/18 09:49:41;;;;;;;3.58;1.60;;;23.00;45.00;;;;;;7319408;32;20213;-61
2022/04/18 09:53:46;;;;;;;3.85;1.40;;;22.70;41.30;;;;;;7321867;32;20591;-61
2022/04/18 09:57:49;;;;;;;4.30;1.33;;;22.70;44.60;;;;;;7322870;32;20194;-61
2022/04/18 10:02:12;;;;;;;2.80;1.40;;;23.70;42.70;;;;;;7325530;32;20602;-62
2022/04/18 10:06:14;;;;;;;5.65;1.27;;;23.90;41.60;;;;;;7317230;32;20493;-60
2022/04/18 10:10:16;;;;;;;2.65;1.23;;;23.80;37.70;;;;;;7318880;32;20198;-61
2022/04/18 10:14:18;;;;;;;1.87;1.10;;;24.00;38.90;;;;;;7314113;32;20203;-62
2022/04/18 10:18:21;;;;;;;2.28;1.33;;;24.70;34.60;;;;;;7318898;32;20526;-62
2022/04/18 10:23:03;;;;;;;3.87;1.50;;;24.70;36.90;;;;;;7318461;32;20809;-61
2022/04/18 10:27:17;;;;;;;2.62;1.33;;;24.60;35.10;;;;;;7314713;32;20103;-61
2022/04/18 10:31:40;;;;;;;1.77;1.10;;;24.40;38.10;;;;;;7320675;32;20512;-62
2022/04/18 10:35:50;;;;;;;2.62;1.45;;;24.10;36.20;;;;;;7318167;32;20240;-61
2022/04/18 10:40:00;;;;;;;1.87;1.15;;;23.80;38.20;;;;;;7311920;32;20215;-61
2022/04/18 10:44:05;;;;;;;3.33;1.55;;;23.00;39.50;;;;;;7317677;32;20524;-61
2022/04/18 10:48:09;;;;;;;2.37;1.75;;;22.50;38.80;;;;;;7314605;32;20915;-61
2022/04/18 10:52:27;;;;;;;3.28;1.50;;;22.40;40.30;;;;;;7309249;32;20257;-61
2022/04/18 10:56:55;;;;;;;2.37;1.50;;;21.70;39.40;;;;;;7314513;32;20670;-61
2022/04/18 11:00:58;;;;;;;;;;;21.80;40.10;;;;;;7317097;32;20131;-63
2022/04/18 11:05:00;;;;;;;4.20;1.50;;;21.80;39.80;;;;;;7319472;32;20366;-63
2022/04/18 11:09:08;;;;;;;2.45;1.50;;;21.60;40.00;;;;;;7315989;32;20420;-62
2022/04/18 11:13:12;;;;;;;1.85;1.30;;;21.30;40.60;;;;;;7319782;32;20100;-62
2022/04/18 11:17:32;;;;;;;3.25;1.30;;;20.90;40.50;;;;;;7314146;32;20483;-62
2022/04/18 11:21:54;;;;;;;3.42;1.70;;;20.70;43.80;;;;;;7316602;32;20134;-61
2022/04/18 11:26:03;;;;;;;2.58;1.30;;;20.60;43.30;;;;;;7320778;32;20669;-62
2022/04/18 11:30:13;;;;;;;2.33;1.30;;;20.30;43.70;;;;;;7315440;32;20227;-62
2022/04/18 11:34:17;;;;;;;2.47;1.60;;;20.20;43.80;;;;;;7315095;32;20242;-60
2022/04/18 11:38:25;;;;;;;1.60;1.20;;;20.40;44.10;;;;;;7310833;32;20439;-63
2022/04/18 11:42:29;;;;;;;2.22;1.12;;;20.50;44.50;;;;;;7310326;32;20099;-63
2022/04/18 11:46:31;;;;;;;4.30;1.52;;;19.90;44.30;;;;;;7307762;32;20103;-68
2022/04/18 11:50:37;;;;;;;3.22;1.60;;;19.90;43.50;;;;;;7315786;32;20194;-64
2022/04/18 11:55:04;;;;;;;2.75;1.60;;;20.20;42.90;;;;;;7306386;32;20271;-63
2022/04/18 11:59:06;;;;;;;3.67;1.37;;;19.70;43.20;;;;;;7316895;32;20141;-59
2022/04/18 12:07:30;;;;;;;2.62;1.80;;;19.30;44.50;;;;;;7312676;32;20134;-60
2022/04/18 12:11:36;;;;;;;2.03;1.23;;;19.20;43.10;;;;;;7316421;32;20126;-60
2022/04/18 12:15:39;;;;;;;2.47;1.15;;;19.30;45.90;;;;;;7317790;32;20212;-62
2022/04/18 12:19:40;;;;;;;2.40;1.35;;;19.00;43.30;;;;;;7316265;32;20160;-62
2022/04/18 12:23:43;;;;;;;1.98;1.40;;;18.90;43.50;;;;;;7316515;32;20509;-61
2022/04/18 12:27:44;;;;;;;1.95;1.27;;;18.80;44.40;;;;;;7313141;32;20107;-59
2022/04/18 12:31:46;;;;;;;4.37;1.40;;;19.40;44.30;;;;;;7314655;32;20107;-60
2022/04/18 12:35:56;;;;;;;2.62;1.40;;;19.50;45.70;;;;;;7327718;32;20195;-59
2022/04/18 12:40:15;;;;;;;3.60;1.00;;;19.60;46.80;;;;;;7316243;32;20254;-59
2022/04/18 12:44:16;;;;;;;1.65;1.23;;;20.20;45.90;;;;;;7314462;32;20104;-60
2022/04/18 12:48:26;;;;;;;2.97;1.20;;;20.30;42.70;;;;;;7318522;32;20214;-60
2022/04/18 12:52:28;;;;;;;1.92;1.10;;;20.50;42.70;;;;;;7320195;32;20190;-58
2022/04/18 12:56:30;;;;;;;2.28;1.10;;;20.30;44.00;;;;;;7320952;32;20504;-59
2022/04/18 13:00:37;;;;;;;1.92;1.15;;;20.20;44.60;;;;;;7321204;32;20103;-61
2022/04/18 13:04:38;;;;;;;2.28;0.95;;;20.10;43.30;;;;;;7319827;32;20230;-61
2022/04/18 13:08:41;;;;;;;1.90;1.20;;;20.40;43.10;;;;;;7320118;32;20549;-61
2022/04/18 13:12:42;;;;;;;1.83;1.00;;;19.90;43.00;;;;;;7316108;32;20103;-60
2022/04/18 13:16:45;;;;;;;1.83;1.17;;;19.90;44.80;;;;;;7321459;32;20100;-63
2022/04/18 13:20:46;;;;;;;2.03;1.40;;;20.10;45.60;;;;;;7318114;32;20099;-62
2022/04/18 13:24:48;;;;;;;1.65;1.15;;;20.50;46.20;;;;;;7320177;32;20115;-62
2022/04/18 13:28:50;;;;;;;3.10;1.33;;;20.30;44.80;;;;;;7316731;32;20127;-63
2022/04/18 13:32:53;;;;;;;2.10;1.10;;;20.10;44.30;;;;;;7322695;32;20133;-61
2022/04/18 13:36:54;;;;;;;4.57;0.98;;;19.90;44.00;;;;;;7317047;32;20469;-61
2022/04/18 13:40:56;;;;;;;2.78;1.20;;;19.70;43.50;;;;;;7316396;32;20099;-63
2022/04/18 13:44:58;;;;;;;1.67;1.17;;;20.00;43.10;;;;;;7324465;32;20428;-60
2022/04/18 13:48:59;;;;;;;3.17;1.17;;;19.90;44.80;;;;;;7321313;32;20435;-63
2022/04/18 13:53:01;;;;;;;1.87;1.17;;;20.10;43.70;;;;;;7325191;32;20410;-63
2022/04/18 13:57:05;;;;;;;3.60;1.23;;;19.80;44.10;;;;;;7322298;32;20104;-64
2022/04/18 14:01:07;;;;;;;3.35;1.30;;;19.90;43.00;;;;;;7315134;32;20103;-64
2022/04/18 14:05:09;;;;;;;5.57;1.90;;;20.10;45.00;;;;;;7319656;32;20207;-64
2022/04/18 14:09:13;;;;;;;2.70;1.20;;;19.90;46.80;;;;;;7319704;32;20119;-64
2022/04/18 14:13:14;;;;;;;1.85;1.48;;;20.10;46.40;;;;;;7320493;32;20134;-64
2022/04/18 14:21:37;;;;;;;1.70;1.08;;;20.50;43.80;;;;;;7316816;32;20566;-63
2022/04/18 14:25:40;;;;;;;1.85;0.85;;;20.40;42.20;;;;;;7313439;32;20217;-63
2022/04/18 14:29:41;;;;;;;3.70;1.30;;;20.80;43.80;;;;;;7317908;32;20518;-64
2022/04/18 14:33:43;;;;;;;1.80;1.00;;;20.60;43.90;;;;;;7311486;32;20137;-64
2022/04/18 14:37:45;;;;;;;2.40;1.12;;;20.70;43.40;;;;;;7319093;32;20683;-63
2022/04/18 14:41:46;;;;;;;2.10;1.10;;;20.90;43.60;;;;;;7312247;32;20103;-64
2022/04/18 14:45:49;;;;;;;3.15;2.83;;;20.90;42.90;;;;;;7314390;32;20092;-65
2022/04/18 14:49:51;;;;;;;1.83;1.40;;;20.60;42.50;;;;;;7317485;32;20104;-64
2022/04/18 14:53:53;;;;;;;2.45;1.30;;;20.50;40.90;;;;;;7312885;32;20154;-64
2022/04/18 14:57:54;;;;;;;2.67;1.40;;;20.10;42.80;;;;;;7313069;32;20320;-63
2022/04/18 15:01:57;;;;;;;2.78;1.90;;;20.10;43.10;;;;;;7320237;32;20220;-63
2022/04/18 15:05:59;;;;;;;2.75;1.60;;;19.90;44.10;;;;;;7317409;32;20312;-65
2022/04/18 15:10:01;;;;;;;5.05;1.50;;;19.70;43.80;;;;;;7316324;32;20209;-63
2022/04/18 15:14:03;;;;;;;3.60;2.00;;;19.70;43.90;;;;;;7316451;32;20835;-63
2022/04/18 15:18:05;;;;;;;2.40;1.70;;;19.30;44.30;;;;;;7317315;32;20126;-65
2022/04/18 15:22:06;;;;;;;4.07;2.55;;;19.10;44.10;;;;;;7314953;32;20122;-63
2022/04/18 15:26:08;;;;;;;4.57;1.65;;;19.20;45.70;;;;;;7315018;32;20199;-63
2022/04/18 15:34:31;;;;;;;4.15;2.40;;;19.00;44.80;;;;;;7313493;32;20126;-62
2022/04/18 15:38:33;;;;;;;3.92;2.08;;;18.90;44.70;;;;;;7316628;32;20237;-62
2022/04/18 15:42:36;;;;;;;5.00;2.28;;;18.70;45.20;;;;;;7320721;32;20099;-64
2022/04/18 15:46:37;;;;;;;3.47;1.65;;;18.60;46.50;;;;;;7319173;32;20210;-63
2022/04/18 15:50:40;;;;;;;3.17;1.58;;;18.70;44.90;;;;;;7317597;32;20193;-63
2022/04/18 15:54:42;;;;;;;6.57;4.45;;;18.70;46.40;;;;;;7320857;32;20107;-63
2022/04/18 15:58:44;;;;;;;2.75;1.70;;;18.80;46.50;;;;;;7320932;32;20134;-63
2022/04/18 16:02:46;;;;;;;2.92;1.60;;;18.70;45.90;;;;;;7318750;32;20127;-63
2022/04/18 16:06:48;;;;;;;5.60;1.60;;;18.60;45.70;;;;;;7320227;32;20121;-62
2022/04/18 16:10:50;;;;;;;3.10;1.67;;;18.60;46.90;;;;;;7312883;32;20250;-63
2022/04/18 16:14:51;;;;;;;3.25;1.70;;;18.40;45.60;;;;;;7316665;32;20100;-62
2022/04/18 16:18:53;;;;;;;2.10;1.65;;;18.20;47.80;;;;;;7314121;32;20115;-63
2022/04/18 16:22:55;;;;;;;4.10;1.42;;;18.20;46.10;;;;;;7321289;32;20432;-61
2022/04/18 16:26:57;;;;;;;3.00;1.80;;;18.30;45.10;;;;;;7307691;32;20095;-61
2022/04/18 16:35:19;;;;;;;2.92;1.42;;;18.00;45.10;;;;;;7323137;32;20725;-62
2022/04/18 16:39:21;;;;;;;3.55;1.20;;;18.10;45.80;;;;;;7316244;32;20464;-61
2022/04/18 16:47:43;;;;;;;1.92;0.98;;;17.80;46.10;;;;;;7319326;32;20215;-62
2022/04/18 16:51:44;;;;;;;2.62;0.90;;;17.80;45.70;;;;;;7321222;32;20111;-62
2022/04/18 16:55:46;;;;;;;2.30;1.00;;;17.80;46.40;;;;;;7321072;32;20100;-62
2022/04/18 16:59:49;;;;;;;1.87;0.93;;;17.80;45.10;;;;;;7322171;32;20134;-61
2022/04/18 17:03:54;;;;;;;1.77;1.00;;;17.60;46.50;;;;;;7320820;32;20104;-63
2022/04/18 17:07:56;;;;;;;1.95;1.05;;;17.60;44.40;;;;;;7320215;32;20432;-62
2022/04/18 17:11:57;;;;;;;2.92;1.58;;;17.50;46.80;;;;;;7322400;32;20143;-61
2022/04/18 17:15:59;;;;;;;4.15;1.20;;;17.40;47.00;;;;;;7316535;32;20186;-61
2022/04/18 17:20:02;;;;;;;2.55;1.30;;;17.50;46.80;;;;;;7314803;32;20216;-61
2022/04/18 17:24:04;;;;;;;1.65;1.10;;;17.40;45.90;;;;;;7322726;32;20177;-61
2022/04/18 17:28:06;;;;;;;2.30;1.25;;;17.40;46.50;;;;;;7320482;32;20487;-61
2022/04/18 17:32:08;;;;;;;3.65;1.20;;;17.30;46.20;;;;;;7320874;32;20125;-61
2022/04/18 17:36:10;;;;;;;4.25;1.30;;;17.20;47.20;;;;;;7314811;32;20183;-61
2022/04/18 17:40:11;;;;;;;2.85;1.40;;;17.20;48.20;;;;;;7322787;32;20625;-61
2022/04/18 17:44:13;;;;;;;3.25;1.45;;;17.10;48.30;;;;;;7318887;32;20241;-62
2022/04/18 17:48:15;;;;;;;2.35;1.48;;;17.00;48.50;;;;;;7310742;32;20274;-61
2022/04/18 17:52:16;;;;;;;2.65;1.50;;;16.80;50.40;;;;;;7318279;32;20104;-62
2022/04/18 17:56:18;;;;;;;2.50;1.12;;;16.80;49.90;;;;;;7319380;32;20103;-61
2022/04/18 18:00:20;;;;;;;2.60;1.30;;;16.60;50.80;;;;;;7321481;32;20269;-62
2022/04/18 18:04:22;;;;;;;2.62;1.15;;;16.50;51.10;;;;;;7320252;32;20124;-60
2022/04/18 18:08:24;;;;;;;2.75;1.70;;;16.30;51.40;;;;;;7321300;32;20130;-61
2022/04/18 18:12:25;;;;;;;2.80;1.70;;;16.10;51.60;;;;;;7318830;32;20496;-60
2022/04/18 18:16:29;;;;;;;4.30;1.70;;;16.00;52.30;;;;;;7321850;32;20118;-60
2022/04/18 18:20:31;;;;;;;2.25;1.35;;;15.90;53.20;;;;;;7315827;32;20130;-60
2022/04/18 18:24:33;;;;;;;4.15;1.67;;;15.70;53.40;;;;;;7317307;32;20237;-61
2022/04/18 18:28:34;;;;;;;5.75;1.60;;;15.60;53.30;;;;;;7320009;32;20765;-60
2022/04/18 18:32:42;;;;;;;2.83;1.60;;;15.50;54.30;;;;;;7317873;32;20121;-62
2022/04/18 18:36:43;;;;;;;;;;;15.30;55.30;;;;;;7318787;32;20155;-61
2022/04/18 18:40:46;;;;;;;2.72;1.60;;;15.00;57.20;;;;;;7318144;32;20010;-62
2022/04/18 18:44:48;;;;;;;4.40;1.40;;;14.80;57.30;;;;;;7320141;32;20108;-66
2022/04/18 18:48:49;;;;;;;4.78;2.28;;;14.50;59.90;;;;;;7319613;32;20675;-65
2022/04/18 18:52:52;;;;;;;2.72;1.90;;;14.30;61.80;;;;;;7321444;32;20111;-65
2022/04/18 18:56:54;;;;;;;3.03;1.40;;;14.10;64.00;;;;;;7320013;32;20199;-64
2022/04/18 19:00:55;;;;;;;3.83;1.65;;;13.90;67.00;;;;;;7313070;32;20134;-62
2022/04/18 19:04:57;;;;;;;3.90;2.08;;;13.60;73.20;;;;;;7319155;32;20154;-64
2022/04/18 19:08:59;;;;;;;3.80;1.62;;;13.30;79.30;;;;;;7308907;32;20256;-63
2022/04/18 19:13:02;;;;;;;7.05;1.77;;;13.00;90.10;;;;;;7320418;32;20210;-63
2022/04/18 19:30:05;;;;;;;8.27;1.45;;;11.80;99.90;;;;;;7312560;32;20131;-63
2022/04/18 19:34:07;;;;;;;5.97;1.50;;;11.60;99.90;;;;;;7320163;32;20099;-63
2022/04/18 19:38:09;;;;;;;1.85;1.05;;;11.40;99.90;;;;;;7315092;32;20234;-63
2022/04/18 19:42:10;;;;;;;5.62;1.60;;;11.30;99.90;;;;;;7318148;32;20564;-64
2022/04/18 19:46:17;;;;;;;2.35;1.37;;;11.10;99.90;;;;;;7318374;32;20100;-62
2022/04/18 19:50:19;;;;;;;4.00;1.40;;;10.90;99.90;;;;;;7312055;32;20126;-63
2022/04/18 19:54:21;;;;;;;4.37;1.48;;;10.80;99.90;;;;;;7313596;32;20694;-62
2022/04/18 19:58:22;;;;;;;3.30;1.40;;;10.60;99.90;;;;;;7315130;32;20130;-64
2022/04/18 20:02:24;;;;;;;3.50;1.50;;;10.30;99.90;;;;;;7316707;32;20317;-63
2022/04/18 20:06:26;;;;;;;4.43;1.40;;;10.10;99.90;;;;;;7320254;32;20161;-65
2022/04/18 20:10:29;;;;;;;3.60;1.52;;;9.90;99.90;;;;;;7317825;32;20457;-64
2022/04/18 20:14:31;;;;;;;5.65;1.42;;;9.70;99.90;;;;;;7320818;32;20270;-62
2022/04/18 20:18:35;;;;;;;4.90;1.48;;;9.50;99.90;;;;;;7318800;32;20198;-62
2022/04/18 20:22:37;;;;;;;7.25;1.60;;;9.30;99.90;;;;;;7318577;32;20103;-62
2022/04/18 20:26:38;;;;;;;3.72;1.62;;;9.20;99.90;;;;;;7315426;32;20118;-63
2022/04/18 20:30:40;;;;;;;5.62;1.85;;;9.00;99.90;;;;;;7318617;32;20186;-62
2022/04/18 20:34:42;;;;;;;3.50;1.52;;;8.90;99.90;;;;;;7319482;32;20429;-63
2022/04/18 20:38:45;;;;;;;2.37;1.45;;;8.70;99.90;;;;;;7319333;32;20225;-63
2022/04/18 20:42:47;;;;;;;4.85;1.60;;;8.50;99.90;;;;;;7309187;32;20661;-61
2022/04/18 20:46:49;;;;;;;3.03;1.87;;;8.40;99.90;;;;;;7311064;32;20481;-64
2022/04/18 20:50:50;;;;;;;5.75;1.92;;;8.20;99.90;;;;;;7318641;32;20805;-63
2022/04/18 20:59:13;;;;;;;3.60;1.90;;;8.00;99.90;;;;;;7318873;32;20127;-61
2022/04/18 21:03:19;;;;;;;6.95;2.37;;;7.80;99.90;;;;;;7316670;32;20134;-62
2022/04/18 21:07:21;;;;;;;4.70;2.10;;;7.70;99.90;;;;;;7311512;32;20209;-62
2022/04/18 21:11:24;;;;;;;2.58;1.45;;;7.70;99.90;;;;;;7309023;32;20127;-61
2022/04/18 21:15:26;;;;;;;4.75;1.67;;;7.60;99.90;;;;;;7319273;32;20213;-60
2022/04/18 21:19:28;;;;;;;3.90;1.50;;;7.40;99.90;;;;;;7315052;32;20249;-61
2022/04/18 21:23:30;;;;;;;3.40;1.30;;;7.40;99.90;;;;;;7327515;32;20479;-60
2022/04/18 21:27:38;;;;;;;3.25;1.45;;;7.30;99.90;;;;;;7334535;32;20114;-61
2022/04/18 21:31:39;;;;;;;3.83;1.40;;;7.20;99.90;;;;;;7322048;32;20241;-63
2022/04/18 21:35:42;;;;;;;4.15;1.52;;;7.10;99.90;;;;;;7319773;32;20198;-62
2022/04/18 21:39:43;;;;;;;9.40;1.73;;;7.00;99.90;;;;;;7327495;32;20104;-61
2022/04/18 21:43:45;;;;;;;6.47;1.65;;;7.00;99.90;;;;;;7324340;32;20805;-62
2022/04/18 21:48:07;;;;;;;4.62;1.55;;;6.90;99.90;;;;;;7322110;32;20100;-61
2022/04/18 21:52:09;;;;;;;2.50;1.37;;;6.90;99.90;;;;;;7324896;32;20103;-62
2022/04/18 21:56:11;;;;;;;2.42;1.15;;;6.70;99.90;;;;;;7321624;32;20202;-63
2022/04/18 22:00:22;;;;;;;3.05;1.90;;;6.60;99.90;;;;;;7324179;32;20104;-62
2022/04/18 22:04:23;;;;;;;3.28;1.62;;;6.60;99.90;;;;;;7321000;32;20435;-63
2022/04/18 22:08:26;;;;;;;5.50;1.70;;;6.50;99.90;;;;;;7320393;32;20729;-60
2022/04/18 22:12:27;;;;;;;7.40;1.80;;;6.40;99.90;;;;;;7322992;32;20142;-60